createdAt,value
2023-05-18T00:01:48.718Z,9.48
2023-05-18T00:04:17.275Z,9.43
2023-05-18T00:06:47.260Z,9.40
2023-05-18T00:09:15.105Z,9.37
2023-05-18T00:11:42.903Z,9.36
2023-05-18T00:14:10.654Z,9.34
2023-05-18T00:16:38.480Z,9.37
2023-05-18T00:19:06.385Z,9.34
2023-05-18T00:21:34.513Z,9.32
2023-05-18T00:24:03.660Z,9.30
2023-05-18T00:26:31.425Z,9.28
2023-05-18T00:28:59.168Z,9.28
2023-05-18T00:31:26.953Z,9.24
2023-05-18T00:33:54.771Z,9.20
2023-05-18T00:36:22.584Z,9.16
2023-05-18T00:38:50.506Z,9.11
2023-05-18T00:41:19.608Z,9.08
2023-05-18T00:43:47.374Z,9.06
2023-05-18T00:46:15.162Z,9.01
2023-05-18T00:48:43.264Z,8.98
2023-05-18T00:51:11.308Z,8.95
2023-05-18T00:53:39.755Z,8.93
2023-05-18T00:56:09.422Z,8.90
2023-05-18T00:58:42.016Z,8.87
2023-05-18T01:01:10.596Z,8.84
2023-05-18T01:03:39.151Z,8.78
2023-05-18T01:06:07.807Z,8.77
2023-05-18T01:08:36.918Z,8.76
2023-05-18T01:11:16.224Z,8.78
2023-05-18T01:14:00.043Z,8.75
2023-05-18T01:16:34.302Z,8.71
2023-05-18T01:19:10.895Z,8.69
2023-05-18T01:21:51.745Z,8.66
2023-05-18T01:24:30.298Z,8.64
2023-05-18T01:27:02.066Z,8.62
2023-05-18T01:29:31.379Z,8.62
2023-05-18T01:31:59.421Z,8.60
2023-05-18T01:34:27.154Z,8.55
2023-05-18T01:36:55.057Z,8.54
2023-05-18T01:39:25.161Z,8.51
2023-05-18T01:41:57.229Z,8.48
2023-05-18T01:44:33.050Z,8.46
2023-05-18T01:47:05.530Z,8.42
2023-05-18T01:49:37.674Z,8.38
2023-05-18T01:52:11.299Z,8.37
2023-05-18T01:54:44.387Z,8.35
2023-05-18T01:57:13.827Z,8.31
2023-05-18T01:59:44.232Z,8.30
2023-05-18T02:02:13.285Z,8.29
2023-05-18T02:04:41.304Z,8.26
2023-05-18T02:07:09.516Z,8.23
2023-05-18T02:09:37.443Z,8.19
2023-05-18T02:12:05.976Z,8.18
2023-05-18T02:14:34.061Z,8.13
2023-05-18T02:17:03.322Z,8.11
2023-05-18T02:19:32.081Z,8.08
2023-05-18T02:21:59.881Z,8.06
2023-05-18T02:24:28.002Z,8.04
2023-05-18T02:26:56.119Z,8.01
2023-05-18T02:29:23.869Z,7.98
2023-05-18T02:31:51.793Z,7.95
2023-05-18T02:34:21.986Z,7.93
2023-05-18T02:36:49.813Z,7.91
2023-05-18T02:39:17.662Z,7.87
2023-05-18T02:41:45.447Z,7.84
2023-05-18T02:44:13.461Z,7.80
2023-05-18T02:46:41.386Z,7.80
2023-05-18T02:49:09.174Z,7.78
2023-05-18T02:51:38.490Z,7.75
2023-05-18T02:54:06.704Z,7.73
2023-05-18T02:56:34.482Z,7.70
2023-05-18T02:59:02.377Z,7.67
2023-05-18T03:01:30.291Z,7.63
2023-05-18T03:03:58.392Z,7.62
2023-05-18T03:06:27.016Z,7.61
2023-05-18T03:08:56.553Z,7.56
2023-05-18T03:11:24.863Z,7.52
2023-05-18T03:13:52.760Z,7.48
2023-05-18T03:16:20.575Z,7.46
2023-05-18T03:18:48.309Z,7.46
2023-05-18T03:21:16.683Z,7.44
2023-05-18T03:23:44.495Z,7.43
2023-05-18T03:26:13.846Z,7.44
2023-05-18T03:28:41.669Z,7.43
2023-05-18T03:31:09.459Z,7.41
2023-05-18T03:33:37.249Z,7.41
2023-05-18T03:36:06.157Z,7.40
2023-05-18T03:38:33.909Z,7.38
2023-05-18T03:41:01.730Z,7.33
2023-05-18T03:43:32.676Z,7.31
2023-05-18T03:46:00.638Z,7.28
2023-05-18T03:48:28.745Z,7.19
2023-05-18T03:50:56.610Z,7.20
2023-05-18T03:53:24.356Z,7.18
2023-05-18T03:55:52.387Z,7.17
2023-05-18T03:58:20.516Z,7.18
2023-05-18T04:00:49.812Z,7.16
2023-05-18T04:03:17.818Z,7.15
2023-05-18T04:05:46.031Z,7.14
2023-05-18T04:08:14.686Z,7.11
2023-05-18T04:10:43.189Z,7.15
2023-05-18T04:13:11.002Z,7.13
2023-05-18T04:15:39.063Z,7.15
2023-05-18T04:18:08.416Z,7.11
2023-05-18T04:20:37.991Z,7.13
2023-05-18T04:23:06.217Z,7.18
2023-05-18T04:25:33.971Z,7.16
2023-05-18T04:28:02.556Z,7.21
2023-05-18T04:30:30.413Z,7.18
2023-05-18T04:33:00.126Z,7.16
2023-05-18T04:35:31.868Z,7.21
2023-05-18T04:37:59.957Z,7.24
2023-05-18T04:40:27.813Z,7.29
2023-05-18T04:42:55.665Z,7.32
2023-05-18T04:45:26.166Z,7.32
2023-05-18T04:47:54.790Z,7.38
2023-05-18T04:50:24.265Z,7.41
2023-05-18T04:52:57.902Z,7.46
2023-05-18T04:55:27.851Z,7.51
2023-05-18T04:57:57.342Z,7.56
2023-05-18T05:00:26.238Z,7.62
2023-05-18T05:02:54.786Z,7.68
2023-05-18T05:05:22.679Z,7.73
2023-05-18T05:07:51.427Z,7.79
2023-05-18T05:10:21.091Z,7.87
2023-05-18T05:12:50.304Z,7.92
2023-05-18T05:15:18.431Z,7.93
2023-05-18T05:17:47.505Z,8.03
2023-05-18T05:20:15.550Z,8.07
2023-05-18T05:22:43.313Z,8.13
2023-05-18T05:25:11.539Z,8.25
2023-05-18T05:27:41.185Z,8.29
2023-05-18T05:30:09.915Z,8.33
2023-05-18T05:32:37.787Z,8.42
2023-05-18T05:35:06.635Z,8.46
2023-05-18T05:37:34.476Z,8.54
2023-05-18T05:40:02.219Z,8.63
2023-05-18T05:42:30.378Z,8.71
2023-05-18T05:44:59.480Z,8.75
2023-05-18T05:47:27.370Z,8.79
2023-05-18T05:49:55.821Z,8.90
2023-05-18T05:52:23.584Z,9.00
2023-05-18T05:54:51.447Z,9.10
2023-05-18T05:57:19.190Z,9.19
2023-05-18T05:59:46.956Z,9.30
2023-05-18T06:02:16.244Z,9.40
2023-05-18T06:04:44.519Z,9.44
2023-05-18T06:07:12.905Z,9.53
2023-05-18T06:09:40.899Z,9.56
2023-05-18T06:12:11.119Z,9.59
2023-05-18T06:14:39.137Z,9.67
2023-05-18T06:17:07.279Z,9.76
2023-05-18T06:19:36.413Z,9.81
2023-05-18T06:22:04.234Z,9.86
2023-05-18T06:24:31.968Z,9.96
2023-05-18T06:26:59.735Z,10.05
2023-05-18T06:29:28.053Z,10.16
2023-05-18T06:31:55.873Z,10.23
2023-05-18T06:34:23.776Z,10.32
2023-05-18T06:36:52.895Z,10.44
2023-05-18T06:39:20.829Z,10.53
2023-05-18T06:41:48.661Z,10.63
2023-05-18T06:44:16.471Z,10.73
2023-05-18T06:46:44.544Z,10.80
2023-05-18T06:49:12.341Z,10.82
2023-05-18T06:51:40.127Z,10.89
2023-05-18T06:54:09.317Z,11.01
2023-05-18T06:56:37.031Z,11.14
2023-05-18T06:59:04.833Z,11.24
2023-05-18T07:01:33.816Z,11.34
2023-05-18T07:04:02.591Z,11.33
2023-05-18T07:06:31.144Z,11.41
2023-05-18T07:08:59.004Z,11.52
2023-05-18T07:11:29.621Z,11.61
2023-05-18T07:13:57.685Z,11.73
2023-05-18T07:16:27.772Z,11.82
2023-05-18T07:18:55.782Z,11.93
2023-05-18T07:21:23.608Z,12.00
2023-05-18T07:23:52.574Z,12.06
2023-05-18T07:26:20.381Z,12.16
2023-05-18T07:28:49.884Z,12.26
2023-05-18T07:31:18.711Z,12.35
2023-05-18T07:33:46.721Z,12.43
2023-05-18T07:36:14.508Z,12.54
2023-05-18T07:38:42.378Z,12.62
2023-05-18T07:41:10.178Z,12.69
2023-05-18T07:43:38.035Z,12.76
2023-05-18T07:46:07.259Z,12.73
2023-05-18T07:48:35.044Z,12.77
2023-05-18T07:51:03.083Z,12.89
2023-05-18T07:53:30.806Z,13.01
2023-05-18T07:55:58.590Z,13.10
2023-05-18T07:58:26.371Z,13.19
2023-05-18T08:00:54.204Z,13.29
2023-05-18T08:03:23.598Z,13.39
2023-05-18T08:05:51.447Z,13.48
2023-05-18T08:08:20.386Z,13.62
2023-05-18T08:10:48.189Z,13.81
2023-05-18T08:13:16.184Z,13.98
2023-05-18T08:15:44.441Z,14.11
2023-05-18T08:18:12.331Z,14.23
2023-05-18T08:20:41.569Z,14.40
2023-05-18T08:23:09.295Z,14.60
2023-05-18T08:25:37.311Z,14.76
2023-05-18T08:28:05.600Z,14.91
2023-05-18T08:30:33.439Z,15.10
2023-05-18T08:33:01.656Z,15.35
2023-05-18T08:35:29.666Z,15.48
2023-05-18T08:37:58.960Z,15.60
2023-05-18T08:40:35.038Z,15.71
2023-05-18T08:43:08.006Z,15.84
2023-05-18T08:45:41.294Z,16.08
2023-05-18T08:48:09.465Z,16.29
2023-05-18T08:50:39.080Z,16.42
2023-05-18T08:53:08.210Z,16.51
2023-05-18T08:55:37.107Z,16.68
2023-05-18T08:58:07.585Z,16.74
2023-05-18T09:00:35.935Z,16.95
2023-05-18T09:03:06.300Z,17.07
2023-05-18T09:05:34.743Z,17.03
2023-05-18T09:08:03.969Z,17.08
2023-05-18T09:10:34.665Z,17.17
2023-05-18T09:13:05.358Z,17.00
2023-05-18T09:15:35.313Z,16.91
2023-05-18T09:18:03.848Z,16.79
2023-05-18T09:20:32.158Z,17.03
2023-05-18T09:23:01.013Z,16.95
2023-05-18T09:25:32.124Z,16.92
2023-05-18T09:28:02.112Z,16.97
2023-05-18T09:30:30.000Z,16.97
2023-05-18T09:32:57.968Z,17.16
2023-05-18T09:35:26.559Z,17.42
2023-05-18T09:37:54.685Z,17.71
2023-05-18T09:40:29.442Z,17.74
2023-05-18T09:42:57.294Z,17.81
2023-05-18T09:45:28.517Z,17.85
2023-05-18T09:47:57.149Z,17.94
2023-05-18T09:50:26.536Z,17.87
2023-05-18T09:52:54.412Z,17.91
2023-05-18T09:55:22.450Z,18.01
2023-05-18T09:57:51.560Z,18.01
2023-05-18T10:00:23.584Z,17.86
2023-05-18T10:02:54.196Z,17.84
2023-05-18T10:05:22.908Z,17.97
2023-05-18T10:07:52.267Z,17.92
2023-05-18T10:10:21.165Z,18.10
2023-05-18T10:12:49.543Z,18.35
2023-05-18T10:15:19.768Z,18.59
2023-05-18T10:17:49.611Z,18.85
2023-05-18T10:20:21.247Z,18.87
2023-05-18T10:22:50.679Z,18.80
2023-05-18T10:25:21.690Z,18.93
2023-05-18T10:27:51.459Z,19.09
2023-05-18T10:30:19.226Z,19.31
2023-05-18T10:32:47.450Z,19.60
2023-05-18T10:35:15.860Z,19.63
2023-05-18T10:37:48.548Z,19.65
2023-05-18T10:40:18.697Z,19.79
2023-05-18T10:42:47.847Z,19.87
2023-05-18T10:45:16.589Z,19.81
2023-05-18T10:47:45.848Z,19.82
2023-05-18T10:50:16.621Z,19.80
2023-05-18T10:52:47.271Z,19.97
2023-05-18T10:55:16.313Z,19.84
2023-05-18T10:57:48.053Z,19.70
2023-05-18T11:00:16.428Z,19.64
2023-05-18T11:02:44.918Z,19.58
2023-05-18T11:05:13.795Z,19.33
2023-05-18T11:07:41.695Z,19.38
2023-05-18T11:10:12.440Z,19.49
2023-05-18T11:12:41.961Z,19.56
2023-05-18T11:15:10.698Z,19.83
2023-05-18T11:17:38.496Z,20.15
2023-05-18T11:20:13.919Z,20.32
2023-05-18T11:22:43.446Z,20.33
2023-05-18T11:25:43.961Z,20.30
2023-05-18T11:28:13.746Z,20.17
2023-05-18T11:30:50.039Z,20.26
2023-05-18T11:33:24.374Z,20.45
2023-05-18T11:36:01.481Z,20.62
2023-05-18T11:38:52.569Z,20.66
2023-05-18T11:41:35.821Z,20.66
2023-05-18T11:44:17.515Z,20.77
2023-05-18T11:46:57.546Z,20.97
2023-05-18T11:49:26.549Z,21.02
2023-05-18T11:51:59.256Z,21.09
2023-05-18T11:54:27.541Z,21.14
2023-05-18T11:56:56.931Z,21.42
2023-05-18T11:59:32.661Z,21.55
2023-05-18T12:02:02.388Z,21.63
2023-05-18T12:04:31.524Z,21.41
2023-05-18T12:07:00.129Z,21.20
2023-05-18T12:09:31.414Z,21.14
2023-05-18T12:12:00.622Z,21.10
2023-05-18T12:14:28.875Z,21.03
2023-05-18T12:16:59.003Z,21.09
2023-05-18T12:19:27.694Z,21.09
2023-05-18T12:21:57.849Z,21.10
2023-05-18T12:24:26.660Z,21.19
2023-05-18T12:26:54.552Z,21.26
2023-05-18T12:29:23.842Z,21.45
2023-05-18T12:31:51.644Z,21.43
2023-05-18T12:34:19.410Z,21.36
2023-05-18T12:36:54.460Z,21.47
2023-05-18T12:39:22.669Z,21.53
2023-05-18T12:41:50.812Z,21.58
2023-05-18T12:44:18.817Z,21.72
2023-05-18T12:46:49.489Z,21.76
2023-05-18T12:49:19.755Z,21.91
2023-05-18T12:51:47.776Z,21.98
2023-05-18T12:54:15.877Z,22.04
2023-05-18T12:56:51.664Z,21.99
2023-05-18T12:59:20.762Z,22.03
2023-05-18T13:01:50.828Z,22.15
2023-05-18T13:04:18.963Z,22.14
2023-05-18T13:06:48.603Z,22.20
2023-05-18T13:09:17.560Z,22.15
2023-05-18T13:12:00.249Z,22.10
2023-05-18T13:14:39.241Z,22.15
2023-05-18T13:17:08.546Z,22.32
2023-05-18T13:19:36.798Z,22.21
2023-05-18T13:22:04.698Z,22.17
2023-05-18T13:24:32.566Z,22.20
2023-05-18T13:27:00.398Z,22.01
2023-05-18T13:29:28.537Z,22.06
2023-05-18T13:31:56.323Z,21.93
2023-05-18T13:34:25.476Z,21.96
2023-05-18T13:36:53.304Z,21.98
2023-05-18T13:39:22.100Z,22.05
2023-05-18T13:41:49.896Z,21.92
2023-05-18T13:44:18.242Z,22.02
2023-05-18T13:46:46.057Z,22.12
2023-05-18T13:49:14.346Z,21.92
2023-05-18T13:51:43.466Z,21.82
2023-05-18T13:54:11.262Z,21.80
2023-05-18T13:56:39.139Z,21.89
2023-05-18T13:59:06.932Z,21.95
2023-05-18T14:01:34.772Z,21.79
2023-05-18T14:04:02.796Z,21.61
2023-05-18T14:06:31.748Z,21.64
2023-05-18T14:09:00.880Z,21.78
2023-05-18T14:11:28.697Z,21.66
2023-05-18T14:13:56.579Z,21.54
2023-05-18T14:16:24.579Z,21.65
2023-05-18T14:18:52.470Z,21.74
2023-05-18T14:21:20.379Z,21.89
2023-05-18T14:23:48.786Z,21.86
2023-05-18T14:26:17.998Z,21.84
2023-05-18T14:28:46.317Z,21.90
2023-05-18T14:31:14.139Z,21.74
2023-05-18T14:33:42.191Z,21.54
2023-05-18T14:36:10.031Z,21.45
2023-05-18T14:38:37.823Z,21.37
2023-05-18T14:41:06.508Z,21.34
2023-05-18T14:43:35.713Z,21.09
2023-05-18T14:48:34.175Z,21.08
2023-05-18T14:51:01.964Z,21.17
2023-05-18T14:53:29.800Z,21.18
2023-05-18T14:55:57.848Z,21.18
2023-05-18T14:58:25.682Z,21.13
2023-05-18T15:00:54.890Z,21.08
2023-05-18T15:03:23.589Z,21.11
2023-05-18T15:05:52.867Z,21.04
2023-05-18T15:08:20.683Z,20.98
2023-05-18T15:10:50.011Z,20.88
2023-05-18T15:13:18.173Z,20.81
2023-05-18T15:15:46.101Z,20.75
2023-05-18T15:18:15.310Z,20.59
2023-05-18T15:20:43.534Z,20.36
2023-05-18T15:23:11.934Z,20.32
2023-05-18T15:25:40.403Z,20.16
2023-05-18T15:28:09.060Z,19.98
2023-05-18T15:30:36.865Z,20.02
2023-05-18T15:33:06.238Z,20.08
2023-05-18T15:35:36.394Z,20.19
2023-05-18T15:38:04.165Z,20.25
2023-05-18T15:40:32.155Z,20.25
2023-05-18T15:43:00.099Z,20.29
2023-05-18T15:45:28.100Z,20.27
2023-05-18T15:47:55.999Z,20.23
2023-05-18T15:50:24.048Z,20.10
2023-05-18T15:52:53.510Z,20.04
2023-05-18T15:55:21.476Z,20.06
2023-05-18T15:57:49.269Z,20.15
2023-05-18T16:00:18.093Z,20.16
2023-05-18T16:02:45.964Z,20.19
2023-05-18T16:05:13.755Z,20.19
2023-05-18T16:07:42.442Z,20.17
2023-05-18T16:10:12.657Z,20.05
2023-05-18T16:12:40.350Z,19.96
2023-05-18T16:15:09.164Z,19.87
2023-05-18T16:17:36.944Z,19.81
2023-05-18T16:20:05.040Z,19.78
2023-05-18T16:22:32.832Z,19.73
2023-05-18T16:25:00.669Z,19.62
2023-05-18T16:27:29.736Z,19.58
2023-05-18T16:29:57.501Z,19.53
2023-05-18T16:32:27.730Z,19.53
2023-05-18T16:34:55.710Z,19.58
2023-05-18T16:37:23.612Z,19.57
2023-05-18T16:39:51.754Z,19.57
2023-05-18T16:42:20.764Z,19.57
2023-05-18T16:44:49.991Z,19.56
2023-05-18T16:47:17.769Z,19.57
2023-05-18T16:49:45.973Z,19.56
2023-05-18T16:52:15.717Z,19.49
2023-05-18T16:54:43.547Z,19.49
2023-05-18T16:57:13.094Z,19.44
2023-05-18T16:59:41.340Z,19.40
2023-05-18T17:02:13.397Z,19.35
2023-05-18T17:04:42.837Z,19.33
2023-05-18T17:07:11.572Z,19.33
2023-05-18T17:09:41.792Z,19.30
2023-05-18T17:12:11.020Z,19.28
2023-05-18T17:14:39.401Z,19.20
2023-05-18T17:17:07.325Z,19.14
2023-05-18T17:19:36.818Z,19.13
2023-05-18T17:22:04.717Z,19.14
2023-05-18T17:24:32.637Z,19.14
2023-05-18T17:27:00.694Z,19.13
2023-05-18T17:29:28.928Z,19.02
2023-05-18T17:31:57.182Z,19.00
2023-05-18T17:34:26.770Z,18.98
2023-05-18T17:36:56.442Z,18.95
2023-05-18T17:39:24.274Z,18.91
2023-05-18T17:41:54.323Z,18.89
2023-05-18T17:44:22.242Z,18.81
2023-05-18T17:46:50.981Z,18.74
2023-05-18T17:49:18.959Z,18.67
2023-05-18T17:51:46.942Z,18.62
2023-05-18T17:54:16.194Z,18.58
2023-05-18T17:56:44.145Z,18.52
2023-05-18T17:59:11.933Z,18.41
2023-05-18T18:01:39.781Z,18.38
2023-05-18T18:04:07.974Z,18.33
2023-05-18T18:06:36.660Z,18.26
2023-05-18T18:09:05.840Z,18.21
2023-05-18T18:11:35.571Z,18.11
2023-05-18T18:14:03.582Z,18.07
2023-05-18T18:16:31.863Z,18.02
2023-05-18T18:19:00.011Z,17.92
2023-05-18T18:21:27.889Z,17.87
2023-05-18T18:23:55.939Z,17.80
2023-05-18T18:26:24.006Z,17.74
2023-05-18T18:28:53.428Z,17.70
2023-05-18T18:31:21.526Z,17.66
2023-05-18T18:33:50.424Z,17.59
2023-05-18T18:36:18.779Z,17.56
2023-05-18T18:38:47.194Z,17.51
2023-05-18T18:41:17.284Z,17.44
2023-05-18T18:43:45.795Z,17.39
2023-05-18T18:46:15.228Z,17.34
2023-05-18T18:48:43.137Z,17.31
2023-05-18T18:51:11.095Z,17.29
2023-05-18T18:53:39.055Z,17.25
2023-05-18T18:56:07.245Z,17.21
2023-05-18T18:58:34.988Z,17.13
2023-05-18T19:01:03.231Z,17.11
2023-05-18T19:03:33.024Z,17.09
2023-05-18T19:06:00.992Z,17.03
2023-05-18T19:08:28.764Z,17.02
2023-05-18T19:10:56.850Z,17.00
2023-05-18T19:13:24.686Z,16.97
2023-05-18T19:15:52.506Z,16.95
2023-05-18T19:18:20.345Z,16.90
2023-05-18T19:20:49.576Z,16.86
2023-05-18T19:23:17.348Z,16.82
2023-05-18T19:25:45.500Z,16.78
2023-05-18T19:28:13.285Z,16.74
2023-05-18T19:30:41.160Z,16.69
2023-05-18T19:33:08.977Z,16.64
2023-05-18T19:35:36.777Z,16.56
2023-05-18T19:38:05.906Z,16.48
2023-05-18T19:40:33.659Z,16.41
2023-05-18T19:43:01.681Z,16.35
2023-05-18T19:45:29.781Z,16.29
2023-05-18T19:47:58.257Z,16.23
2023-05-18T19:50:26.111Z,16.16
2023-05-18T19:52:53.973Z,16.07
2023-05-18T19:55:23.190Z,15.97
2023-05-18T19:57:51.033Z,15.92
2023-05-18T20:00:18.970Z,15.85
2023-05-18T20:02:46.792Z,15.80
2023-05-18T20:05:18.154Z,15.75
2023-05-18T20:07:46.220Z,15.68
2023-05-18T20:10:13.963Z,15.61
2023-05-18T20:12:43.213Z,15.54
2023-05-18T20:15:11.440Z,15.45
2023-05-18T20:17:39.265Z,15.40
2023-05-18T20:20:08.349Z,15.31
2023-05-18T20:22:36.315Z,15.28
2023-05-18T20:25:05.618Z,15.22
2023-05-18T20:27:33.615Z,15.19
2023-05-18T20:30:03.271Z,15.12
2023-05-18T20:32:32.731Z,15.09
2023-05-18T20:35:00.720Z,15.04
2023-05-18T20:37:28.607Z,15.00
2023-05-18T20:39:57.446Z,14.95
2023-05-18T20:42:31.910Z,14.89
2023-05-18T20:44:59.786Z,14.82
2023-05-18T20:47:31.778Z,14.72
2023-05-18T20:49:59.733Z,14.63
2023-05-18T20:52:29.222Z,14.53
2023-05-18T20:54:57.101Z,14.45
2023-05-18T20:57:24.980Z,14.38
2023-05-18T20:59:52.858Z,14.30
2023-05-18T21:02:20.757Z,14.20
2023-05-18T21:04:50.038Z,14.17
2023-05-18T21:07:18.137Z,14.09
2023-05-18T21:09:46.575Z,14.01
2023-05-18T21:12:14.438Z,13.97
2023-05-18T21:14:42.278Z,13.86
2023-05-18T21:17:10.263Z,13.82
2023-05-18T21:19:38.190Z,13.76
2023-05-18T21:22:07.484Z,13.72
2023-05-18T21:24:35.355Z,13.67
2023-05-18T21:27:04.247Z,13.64
2023-05-18T21:29:32.190Z,13.60
2023-05-18T21:32:00.306Z,13.50
2023-05-18T21:34:28.323Z,13.46
2023-05-18T21:36:56.572Z,13.42
2023-05-18T21:39:25.833Z,13.38
2023-05-18T21:41:53.763Z,13.33
2023-05-18T21:44:21.645Z,13.28
2023-05-18T21:46:51.410Z,13.23
2023-05-18T21:49:19.599Z,13.18
2023-05-18T21:51:47.537Z,13.14
2023-05-18T21:54:15.524Z,13.10
2023-05-18T21:56:44.798Z,13.05
2023-05-18T21:59:12.650Z,13.00
2023-05-18T22:01:40.844Z,12.95
2023-05-18T22:04:08.829Z,12.90
2023-05-18T22:06:37.474Z,12.88
2023-05-18T22:09:06.172Z,12.83
2023-05-18T22:11:33.995Z,12.79
2023-05-18T22:14:03.223Z,12.73
2023-05-18T22:16:32.014Z,12.68
2023-05-18T22:19:00.262Z,12.64
2023-05-18T22:21:28.288Z,12.58
2023-05-18T22:23:56.161Z,12.52
2023-05-18T22:26:23.989Z,12.51
2023-05-18T22:28:51.927Z,12.44
2023-05-18T22:31:21.434Z,12.39
2023-05-18T22:33:50.214Z,12.37
2023-05-18T22:36:21.576Z,12.32
2023-05-18T22:38:49.863Z,12.29
2023-05-18T22:41:18.709Z,12.25
2023-05-18T22:43:46.599Z,12.21
2023-05-18T22:46:14.536Z,12.19
2023-05-18T22:48:44.052Z,12.16
2023-05-18T22:51:11.940Z,12.10
2023-05-18T22:53:39.799Z,12.05
2023-05-18T22:56:08.025Z,11.97
2023-05-18T22:58:35.722Z,11.91
2023-05-18T23:01:03.643Z,11.84
2023-05-18T23:03:31.463Z,11.80
2023-05-18T23:06:03.003Z,11.75
2023-05-18T23:08:31.347Z,11.69
2023-05-18T23:11:02.019Z,11.64
2023-05-18T23:13:33.003Z,11.57
2023-05-18T23:16:01.166Z,11.55
2023-05-18T23:18:29.119Z,11.52
2023-05-18T23:20:58.693Z,11.49
2023-05-18T23:23:27.904Z,11.47
2023-05-18T23:25:55.888Z,11.39
2023-05-18T23:28:23.707Z,11.35
2023-05-18T23:30:51.544Z,11.32
2023-05-18T23:33:20.121Z,11.28
2023-05-18T23:35:50.042Z,11.24
2023-05-18T23:38:22.082Z,11.19
2023-05-18T23:40:54.404Z,11.19
2023-05-18T23:43:22.720Z,11.14
2023-05-18T23:45:51.503Z,11.10
2023-05-18T23:48:19.815Z,11.06
2023-05-18T23:50:49.462Z,11.03
2023-05-18T23:53:19.058Z,10.94
2023-05-18T23:55:46.957Z,10.86
2023-05-18T23:58:18.272Z,10.86
